createdAt,value
2019-05-10T00:03:08.107Z,33.73
2019-05-10T00:08:44.810Z,37.20
2019-05-10T00:14:25.869Z,34.70
2019-05-10T00:19:47.543Z,38.42
2019-05-10T00:25:09.598Z,40.20
2019-05-10T00:30:31.444Z,39.00
2019-05-10T00:35:53.688Z,40.98
2019-05-10T00:41:15.289Z,44.42
2019-05-10T00:46:37.629Z,40.98
2019-05-10T00:51:59.744Z,43.58
2019-05-10T00:57:21.387Z,44.67
2019-05-10T01:02:42.923Z,41.73
2019-05-10T01:08:04.675Z,41.63
2019-05-10T01:13:26.418Z,41.95
2019-05-10T01:18:47.592Z,39.92
2019-05-10T01:24:09.201Z,41.48
2019-05-10T01:29:30.792Z,43.73
2019-05-10T01:34:52.380Z,46.75
2019-05-10T01:40:14.414Z,45.28
2019-05-10T01:45:35.760Z,45.65
2019-05-10T01:50:57.511Z,46.15
2019-05-10T01:56:19.092Z,48.70
2019-05-10T02:01:40.843Z,43.45
2019-05-10T02:07:02.630Z,47.00
2019-05-10T02:12:25.758Z,48.40
2019-05-10T02:17:47.569Z,44.30
2019-05-10T02:23:09.296Z,48.92
2019-05-10T02:28:31.273Z,49.35
2019-05-10T02:33:53.439Z,46.60
2019-05-10T02:39:14.905Z,44.30
2019-05-10T02:44:36.876Z,42.60
2019-05-10T02:49:59.333Z,45.58
2019-05-10T02:55:22.015Z,41.68
2019-05-10T03:00:45.828Z,43.65
2019-05-10T03:06:07.734Z,52.67
2019-05-10T03:11:32.669Z,40.40
2019-05-10T03:16:54.108Z,31.68
2019-05-10T03:22:18.025Z,28.73
2019-05-10T03:27:39.805Z,28.77
2019-05-10T03:33:01.659Z,31.95
2019-05-10T03:38:23.605Z,31.07
2019-05-10T03:43:45.389Z,29.35
2019-05-10T03:49:07.107Z,26.85
2019-05-10T03:54:28.939Z,25.95
2019-05-10T03:59:50.347Z,27.27
2019-05-10T04:05:12.628Z,27.13
2019-05-10T04:10:34.073Z,27.55
2019-05-10T04:15:55.693Z,28.35
2019-05-10T04:21:17.459Z,26.68
2019-05-10T04:26:39.505Z,28.42
2019-05-10T04:32:01.195Z,27.95
2019-05-10T04:37:22.960Z,32.83
2019-05-10T04:42:44.798Z,30.70
2019-05-10T04:48:06.537Z,26.65
2019-05-10T04:53:28.381Z,48.70
2019-05-10T04:58:49.741Z,32.33
2019-05-10T05:04:11.206Z,32.40
2019-05-10T05:09:32.826Z,30.75
2019-05-10T05:14:54.359Z,30.43
2019-05-10T05:20:16.126Z,30.32
2019-05-10T05:25:40.242Z,32.75
2019-05-10T05:31:01.502Z,32.65
2019-05-10T05:36:23.280Z,34.10
2019-05-10T05:41:48.905Z,29.90
2019-05-10T05:47:08.514Z,26.57
2019-05-10T05:52:30.416Z,28.85
2019-05-10T05:57:52.189Z,29.57
2019-05-10T06:03:19.265Z,27.93
2019-05-10T06:08:37.199Z,30.30
2019-05-10T06:14:03.925Z,26.62
2019-05-10T06:19:29.380Z,28.85
2019-05-10T06:24:46.651Z,37.83
2019-05-10T06:30:09.910Z,31.10
2019-05-10T06:35:31.848Z,31.95
2019-05-10T06:40:53.379Z,26.33
2019-05-10T06:46:15.170Z,24.15
2019-05-10T06:51:36.778Z,27.45
2019-05-10T06:56:58.447Z,29.45
2019-05-10T07:02:26.002Z,25.80
2019-05-10T07:07:45.402Z,23.62
2019-05-10T07:13:07.412Z,23.67
2019-05-10T07:18:29.408Z,27.05
2019-05-10T07:23:50.940Z,30.35
2019-05-10T07:29:27.910Z,32.70
2019-05-10T07:34:36.192Z,31.07
2019-05-10T07:39:57.361Z,28.05
2019-05-10T07:45:25.647Z,29.60
2019-05-10T07:50:49.688Z,35.35
2019-05-10T07:56:08.006Z,24.67
2019-05-10T08:01:32.704Z,23.57
2019-05-10T08:06:53.395Z,23.10
2019-05-10T08:12:15.249Z,23.75
2019-05-10T08:17:43.134Z,26.73
2019-05-10T08:23:02.825Z,22.40
2019-05-10T08:28:27.872Z,23.12
2019-05-10T08:33:53.670Z,25.27
2019-05-10T08:39:13.986Z,22.82
2019-05-10T08:44:35.842Z,20.25
2019-05-10T08:50:11.798Z,20.70
2019-05-10T08:55:22.628Z,21.00
2019-05-10T09:00:54.277Z,22.17
2019-05-10T09:06:11.885Z,21.90
2019-05-10T09:11:32.749Z,18.55
2019-05-10T09:17:00.776Z,19.98
2019-05-10T09:22:26.042Z,22.75
2019-05-10T09:28:04.503Z,31.93
2019-05-10T09:33:22.456Z,27.05
2019-05-10T09:38:46.375Z,35.43
2019-05-10T09:44:08.185Z,35.98
2019-05-10T09:49:30.061Z,14.95
2019-05-10T09:54:51.136Z,17.48
2019-05-10T10:00:17.459Z,13.62
2019-05-10T10:05:40.305Z,14.85
2019-05-10T10:11:13.302Z,31.73
2019-05-10T10:16:28.070Z,14.47
2019-05-10T10:21:49.505Z,15.32
2019-05-10T10:27:11.070Z,17.80
2019-05-10T10:32:34.871Z,30.60
2019-05-10T10:37:57.541Z,14.45
2019-05-10T10:43:19.977Z,14.85
2019-05-10T10:48:43.665Z,29.72
2019-05-10T10:54:07.411Z,29.87
2019-05-10T10:59:29.430Z,50.98
2019-05-10T11:04:50.755Z,19.40
2019-05-10T11:10:18.994Z,28.40
2019-05-10T11:15:36.773Z,36.15
2019-05-10T11:21:01.761Z,18.60
2019-05-10T11:26:26.768Z,33.08
2019-05-10T11:31:50.174Z,19.25
2019-05-10T11:37:10.647Z,15.23
2019-05-10T11:42:32.509Z,23.52
2019-05-10T11:47:59.089Z,19.20
2019-05-10T11:53:17.976Z,12.93
2019-05-10T11:58:45.964Z,43.80
2019-05-10T12:04:05.153Z,16.97
2019-05-10T12:09:27.068Z,16.32
2019-05-10T12:14:48.913Z,17.17
2019-05-10T12:20:12.529Z,10.75
2019-05-10T12:26:13.469Z,6.15
2019-05-10T12:30:58.334Z,4.58
2019-05-10T12:36:26.066Z,4.53
2019-05-10T12:41:47.805Z,3.98
2019-05-10T12:47:07.856Z,3.87
2019-05-10T12:52:31.933Z,4.53
2019-05-10T12:57:53.525Z,3.60
2019-05-10T13:03:18.856Z,6.72
2019-05-10T13:08:38.682Z,3.70
2019-05-10T13:14:01.071Z,2.83
2019-05-10T13:19:24.470Z,3.40
2019-05-10T13:24:46.309Z,3.35
2019-05-10T13:30:09.551Z,4.97
2019-05-10T13:35:31.316Z,6.70
2019-05-10T13:40:53.243Z,3.55
2019-05-10T13:46:14.712Z,5.05
2019-05-10T13:51:36.371Z,2.50
2019-05-10T13:56:58.104Z,2.80
2019-05-10T14:02:23.018Z,4.92
2019-05-10T14:07:50.965Z,3.87
2019-05-10T14:13:07.424Z,2.90
2019-05-10T14:18:29.354Z,4.45
2019-05-10T14:23:51.248Z,3.55
2019-05-10T14:29:12.908Z,2.20
2019-05-10T14:34:37.921Z,2.40
2019-05-10T14:39:58.502Z,2.35
2019-05-10T14:45:20.696Z,2.30
2019-05-10T14:50:46.214Z,2.70
2019-05-10T14:56:08.033Z,3.08
2019-05-10T15:01:30.234Z,4.87
2019-05-10T15:06:51.853Z,3.17
2019-05-10T15:12:16.289Z,2.50
2019-05-10T15:17:37.286Z,2.98
2019-05-10T15:22:59.458Z,2.33
2019-05-10T15:28:21.065Z,2.35
2019-05-10T15:33:42.865Z,4.60
2019-05-10T15:39:06.019Z,2.20
2019-05-10T15:44:31.205Z,2.60
2019-05-10T15:49:54.657Z,3.02
2019-05-10T15:55:17.072Z,3.50
2019-05-10T16:00:41.545Z,3.98
2019-05-10T16:06:02.935Z,4.67
2019-05-10T16:11:24.454Z,6.28
2019-05-10T16:16:46.321Z,4.47
2019-05-10T16:22:07.839Z,6.85
2019-05-10T16:27:33.959Z,5.30
2019-05-10T16:32:53.619Z,9.73
2019-05-10T16:38:15.812Z,12.70
2019-05-10T16:43:38.251Z,10.58
2019-05-10T16:49:00.076Z,17.30
2019-05-10T16:54:25.517Z,9.28
2019-05-10T16:59:46.125Z,14.13
2019-05-10T17:05:09.666Z,12.45
2019-05-10T17:10:32.914Z,20.75
2019-05-10T17:15:55.617Z,10.35
2019-05-10T17:21:18.867Z,6.40
2019-05-10T17:26:41.082Z,5.75
2019-05-10T17:32:04.592Z,8.90
2019-05-10T17:37:29.861Z,18.37
2019-05-10T17:42:51.606Z,21.42
2019-05-10T17:48:13.864Z,16.52
2019-05-10T17:53:36.554Z,25.23
2019-05-10T17:58:57.992Z,15.88
2019-05-10T18:04:20.402Z,8.18
2019-05-10T18:09:42.369Z,6.60
2019-05-10T18:15:05.213Z,7.42
2019-05-10T18:20:27.138Z,13.43
2019-05-10T18:25:52.514Z,16.57
2019-05-10T18:31:13.102Z,19.00
2019-05-10T18:36:51.042Z,8.75
2019-05-10T18:42:10.023Z,9.95
2019-05-10T18:47:32.783Z,9.80
2019-05-10T18:52:54.795Z,9.60
2019-05-10T18:58:17.245Z,14.28
2019-05-10T19:03:39.425Z,12.10
2019-05-10T19:09:01.454Z,5.67
2019-05-10T19:14:29.013Z,8.50
2019-05-10T19:19:59.271Z,10.72
2019-05-10T19:25:24.163Z,8.35
2019-05-10T19:31:03.800Z,6.03
2019-05-10T19:36:14.747Z,6.97
2019-05-10T19:41:36.445Z,7.95
2019-05-10T19:46:58.396Z,11.30
2019-05-10T19:52:25.616Z,9.15
2019-05-10T19:57:44.224Z,6.03
2019-05-10T20:03:06.337Z,7.95
2019-05-10T20:08:28.119Z,5.92
2019-05-10T20:13:50.401Z,16.57
2019-05-10T20:19:12.809Z,4.70
2019-05-10T20:24:42.142Z,15.78
2019-05-10T20:30:04.405Z,16.50
2019-05-10T20:35:26.142Z,19.02
2019-05-10T20:40:48.097Z,14.95
2019-05-10T20:46:11.577Z,14.85
2019-05-10T20:51:34.123Z,11.18
2019-05-10T20:56:56.100Z,12.60
2019-05-10T21:02:20.177Z,10.65
2019-05-10T21:07:43.606Z,10.43
2019-05-10T21:13:08.168Z,9.88
2019-05-10T21:18:30.325Z,11.88
2019-05-10T21:23:52.166Z,11.85
2019-05-10T21:29:13.895Z,12.28
2019-05-10T21:34:35.435Z,13.62
2019-05-10T21:39:57.656Z,13.48
2019-05-10T21:45:19.975Z,11.68
2019-05-10T21:50:42.115Z,8.65
2019-05-10T21:56:03.979Z,8.03
2019-05-10T22:01:26.022Z,10.72
2019-05-10T22:06:47.942Z,9.10
2019-05-10T22:12:10.287Z,12.18
2019-05-10T22:17:32.082Z,13.08
2019-05-10T22:22:53.704Z,13.18
2019-05-10T22:28:16.215Z,10.85
2019-05-10T22:33:37.866Z,12.25
2019-05-10T22:39:07.131Z,10.32
2019-05-10T22:44:23.369Z,15.63
2019-05-10T22:49:45.399Z,8.60
2019-05-10T22:55:07.754Z,10.38
2019-05-10T23:00:29.622Z,10.55
2019-05-10T23:05:51.467Z,9.33
2019-05-10T23:11:13.341Z,12.37
2019-05-10T23:16:34.833Z,9.45
2019-05-10T23:21:56.646Z,9.20
2019-05-10T23:27:18.572Z,9.28
2019-05-10T23:32:40.189Z,8.83
2019-05-10T23:38:02.010Z,6.60
2019-05-10T23:43:23.669Z,10.13
2019-05-10T23:48:45.620Z,5.65
2019-05-10T23:54:07.416Z,6.78
2019-05-10T23:59:29.082Z,4.83
